Time;durP1;ratioP1;P1;durP2;ratioP2;P2;SDS_P1;SDS_P2;PMS_P1;PMS_P2;Temp;Humidity;BMP_temperature;BMP_pressure;BME280_temperature;BME280_humidity;BME280_pressure;Samples;Min_cycle;Max_cycle;Signal;HPM_P1;HPM_P2
2022/02/01 00:00:41;;;;;;;2.10;0.90;;;;;;;0.02;100.00;95861.25;5090204;28;24542;-73
2022/02/01 00:03:08;;;;;;;2.67;0.77;;;;;;;0.01;100.00;95872.31;5090028;28;24474;-73
2022/02/01 00:05:40;;;;;;;2.40;1.17;;;;;;;-0.01;100.00;95865.53;5094043;28;24444;-72
2022/02/01 00:08:14;;;;;;;1.67;0.77;;;;;;;-0.08;100.00;95860.59;5101613;28;24528;-73
2022/02/01 00:10:52;;;;;;;2.03;1.00;;;;;;;-0.06;100.00;95863.97;5089630;28;24529;-73
2022/02/01 00:13:29;;;;;;;2.63;1.10;;;;;;;-0.09;100.00;95866.56;5090169;28;24499;-73
2022/02/01 00:16:18;;;;;;;1.90;0.90;;;;;;;-0.14;100.00;95864.13;5089933;28;24492;-73
2022/02/01 00:19:07;;;;;;;3.00;1.07;;;;;;;-0.10;100.00;95862.34;5089929;28;24995;-74
2022/02/01 00:35:28;;;;;;;1.58;0.77;;;;;;;0.06;100.00;95884.06;5089714;28;24433;-72
2022/02/01 00:38:00;;;;;;;2.38;1.08;;;;;;;0.03;100.00;95889.22;5089779;28;24873;-72
2022/02/01 00:40:27;;;;;;;3.45;1.25;;;;;;;0.09;100.00;95878.09;5089587;28;25073;-73
2022/02/01 00:42:55;;;;;;;2.03;0.80;;;;;;;0.10;100.00;95884.84;5089658;28;24439;-72
2022/02/01 00:45:22;;;;;;;4.78;1.20;;;;;;;0.13;100.00;95883.09;5092529;28;24441;-73
2022/02/01 00:47:48;;;;;;;3.92;1.50;;;;;;;0.17;100.00;95874.50;5093224;28;24792;-72
2022/02/01 00:50:16;;;;;;;2.60;1.00;;;;;;;0.22;100.00;95884.59;5093231;28;24426;-73
2022/02/01 00:52:43;;;;;;;2.13;1.10;;;;;;;0.26;100.00;95904.06;5093563;28;24800;-72
2022/02/01 00:55:10;;;;;;;2.85;1.13;;;;;;;0.27;100.00;95907.44;5093118;28;24430;-72
2022/02/01 00:57:37;;;;;;;2.38;1.20;;;;;;;0.29;100.00;95913.34;5093025;28;24445;-72
2022/02/01 01:00:08;;;;;;;5.07;1.55;;;;;;;0.34;100.00;95924.28;5093219;28;24433;-72
2022/02/01 01:02:34;;;;;;;6.07;1.80;;;;;;;0.32;100.00;95921.75;5093018;28;24449;-72
2022/02/01 01:05:01;;;;;;;4.63;1.80;;;;;;;0.31;100.00;95916.72;5092845;28;24586;-72
2022/02/01 01:07:27;;;;;;;3.67;1.60;;;;;;;0.35;100.00;95925.97;5093389;28;24464;-73
2022/02/01 01:09:55;;;;;;;7.75;1.90;;;;;;;0.30;100.00;95933.72;5092806;28;24437;-72
2022/02/01 01:12:23;;;;;;;5.57;2.08;;;;;;;0.35;100.00;95933.59;5092941;28;24512;-72
2022/02/01 01:15:08;;;;;;;9.93;2.28;;;;;;;0.36;100.00;95940.38;5092906;28;24426;-72
2022/02/01 01:45:03;;;;;;;9.57;2.70;;;;;;;0.39;100.00;95956.44;5092056;28;24469;-72
2022/02/01 01:53:15;;;;;;;8.48;2.60;;;;;;;0.41;100.00;95964.06;5092079;28;24437;-72
2022/02/01 01:55:44;;;;;;;6.70;2.72;;;;;;;0.45;100.00;95970.78;5091019;28;24534;-72
2022/02/01 01:58:10;;;;;;;10.07;2.78;;;;;;;0.40;100.00;95975.94;5091805;28;24430;-72
2022/02/01 02:00:58;;;;;;;9.95;3.15;;;;;;;0.41;100.00;95990.38;5091630;28;24983;-72
2022/02/01 02:03:26;;;;;;;11.73;3.17;;;;;;;0.41;100.00;95999.75;5105688;28;24439;-72
2022/02/01 02:05:54;;;;;;;8.73;2.92;;;;;;;0.41;100.00;95994.63;5093757;28;24525;-72
2022/02/01 02:08:21;;;;;;;11.02;2.90;;;;;;;0.42;100.00;95997.16;5105275;28;24861;-72
2022/02/01 02:10:55;;;;;;;8.40;3.05;;;;;;;0.39;100.00;95974.28;5110282;28;24433;-73
2022/02/01 02:16:02;;;;;;;13.35;3.15;;;;;;;0.37;100.00;95972.63;5047215;28;24445;-73
2022/02/01 02:18:31;;;;;;;9.48;2.90;;;;;;;0.31;100.00;95967.66;5091820;28;24437;-74
2022/02/01 02:21:00;;;;;;;13.18;3.38;;;;;;;0.22;100.00;95955.91;5093482;28;24450;-73
2022/02/01 02:23:27;;;;;;;8.57;2.47;;;;;;;0.18;100.00;95997.59;5091967;28;24437;-73
2022/02/01 02:25:55;;;;;;;10.10;2.88;;;;;;;0.13;100.00;96017.22;5092173;28;24437;-74
2022/02/01 02:28:22;;;;;;;8.65;3.35;;;;;;;0.10;100.00;96007.94;5092006;28;24441;-73
2022/02/01 02:30:50;;;;;;;6.88;2.50;;;;;;;0.05;100.00;96012.28;5092268;28;24476;-73
2022/02/01 02:33:18;;;;;;;7.72;2.75;;;;;;;-0.02;100.00;96020.88;5092075;28;24437;-73
2022/02/01 02:35:55;;;;;;;6.90;2.22;;;;;;;-0.01;100.00;96025.09;5092017;28;24928;-74
2022/02/01 02:38:32;;;;;;;7.80;2.40;;;;;;;0.02;100.00;96016.59;5091706;28;24414;-74
2022/02/01 02:41:09;;;;;;;12.43;3.03;;;;;;;0.05;100.00;96037.75;5092184;28;24452;-73
2022/02/01 02:46:24;;;;;;;11.60;3.10;;;;;;;0.18;100.00;96028.16;5092105;28;24457;-73
2022/02/01 02:48:51;;;;;;;8.15;2.95;;;;;;;0.20;100.00;96037.47;5091761;28;24434;-74
2022/02/01 02:51:17;;;;;;;9.40;3.10;;;;;;;0.14;100.00;96050.31;5092122;28;24442;-74
2022/02/01 02:53:45;;;;;;;14.63;2.95;;;;;;;0.08;100.00;96047.88;5091853;28;24834;-74
2022/02/01 02:56:12;;;;;;;14.95;3.10;;;;;;;0.02;100.00;96044.59;5091472;28;24434;-73
2022/02/01 02:58:39;;;;;;;15.00;3.47;;;;;;;-0.03;100.00;96055.69;5091716;28;24438;-74
2022/02/01 03:01:06;;;;;;;13.82;3.50;;;;;;;-0.03;100.00;96047.22;5091787;28;24511;-74
2022/02/01 03:03:32;;;;;;;12.02;3.70;;;;;;;-0.02;100.00;96052.28;5091229;28;24457;-73
2022/02/01 03:05:59;;;;;;;10.75;3.42;;;;;;;-0.02;100.00;96044.63;5091316;28;24555;-74
2022/02/01 03:08:26;;;;;;;11.40;3.60;;;;;;;0.06;100.00;96038.56;5090786;28;24487;-74
2022/02/01 03:10:54;;;;;;;14.07;3.80;;;;;;;0.04;100.00;96041.16;5091366;28;24571;-74
2022/02/01 03:13:25;;;;;;;20.65;4.00;;;;;;;0.10;100.00;96040.19;5091301;28;24438;-74
2022/02/01 03:15:57;;;;;;;11.23;3.47;;;;;;;0.04;100.00;96040.28;5091098;28;24438;-74
2022/02/01 03:21:08;;;;;;;15.80;4.17;;;;;;;0.08;100.00;96040.25;5091670;28;25004;-73
2022/02/01 03:23:34;;;;;;;18.88;4.05;;;;;;;0.14;100.00;96036.72;5091666;28;24433;-74
2022/02/01 03:26:02;;;;;;;15.70;4.55;;;;;;;0.08;100.00;96042.78;5091730;28;24426;-73
2022/02/01 03:28:30;;;;;;;12.73;3.78;;;;;;;0.11;100.00;96052.94;5090952;28;24434;-74
2022/02/01 03:30:57;;;;;;;18.02;4.07;;;;;;;0.10;100.00;96066.50;5091129;28;25013;-73
2022/02/01 03:33:23;;;;;;;17.58;4.22;;;;;;;0.14;100.00;96068.13;5091628;28;24434;-73
2022/02/01 03:35:50;;;;;;;14.00;3.80;;;;;;;0.14;100.00;96068.13;5091929;28;24445;-73
2022/02/01 03:38:16;;;;;;;14.07;3.72;;;;;;;0.19;100.00;96078.25;5090994;28;25233;-73
2022/02/01 03:40:43;;;;;;;13.73;3.85;;;;;;;0.14;100.00;96083.41;5090731;28;24434;-73
2022/02/01 03:43:10;;;;;;;18.30;4.13;;;;;;;0.15;100.00;96074.94;5090939;28;24465;-74
2022/02/01 03:45:37;;;;;;;17.13;3.58;;;;;;;0.13;100.00;96080.91;5090877;28;24492;-73
2022/02/01 03:48:04;;;;;;;12.50;3.65;;;;;;;0.10;100.00;96079.25;5090958;28;24414;-73
2022/02/01 03:50:30;;;;;;;19.85;4.38;;;;;;;0.10;100.00;96080.94;5090725;28;24426;-73
2022/02/01 03:52:57;;;;;;;18.73;3.73;;;;;;;0.05;100.00;96078.50;5091455;28;24445;-74
2022/02/01 03:55:23;;;;;;;16.48;3.78;;;;;;;0.04;100.00;96086.13;5091157;28;24438;-74
2022/02/01 03:57:50;;;;;;;21.35;4.03;;;;;;;0.06;100.00;96082.69;5093848;28;24445;-74
2022/02/01 04:00:18;;;;;;;15.95;3.97;;;;;;;0.04;100.00;96081.91;5101433;28;24434;-73
2022/02/01 04:02:44;;;;;;;15.25;3.45;;;;;;;0.07;100.00;96075.91;5095566;28;25002;-73
2022/02/01 04:05:11;;;;;;;17.63;3.72;;;;;;;0.02;100.00;96083.63;5104016;28;24986;-73
2022/02/01 04:07:42;;;;;;;12.85;3.85;;;;;;;-0.01;100.00;96098.94;5100619;28;24445;-74
2022/02/01 04:10:10;;;;;;;14.67;3.60;;;;;;;0.02;100.00;96109.09;5097837;28;24488;-74
2022/02/01 04:12:37;;;;;;;15.27;4.13;;;;;;;0.03;100.00;96115.84;5103442;28;24442;-73
2022/02/01 04:15:05;;;;;;;25.15;4.75;;;;;;;0.02;100.00;96128.63;5111246;28;25031;-73
2022/02/01 04:17:34;;;;;;;26.35;3.90;;;;;;;0.00;100.00;96123.56;5103066;28;24483;-74
2022/02/01 04:20:00;;;;;;;17.83;3.95;;;;;;;0.01;100.00;96125.25;5093783;28;24430;-73
2022/02/01 04:22:26;;;;;;;17.25;4.28;;;;;;;0.05;100.00;96124.31;5095024;28;24545;-73
2022/02/01 04:24:53;;;;;;;15.38;4.03;;;;;;;0.06;100.00;96128.53;5095341;28;24418;-74
2022/02/01 04:27:30;;;;;;;15.00;4.03;;;;;;;-0.01;100.00;96124.41;5095072;28;24429;-73
2022/02/01 04:30:05;;;;;;;17.05;4.10;;;;;;;-0.01;100.00;96135.44;5099721;28;24438;-72
2022/02/01 04:32:34;;;;;;;18.52;4.78;;;;;;;-0.03;100.00;96147.38;5095390;28;24441;-72
2022/02/01 04:35:00;;;;;;;17.63;3.92;;;;;;;-0.05;100.00;96149.06;5093150;28;24445;-72
2022/02/01 04:37:27;;;;;;;17.63;3.83;;;;;;;-0.04;100.00;96157.56;5093262;28;24457;-72
2022/02/01 04:39:54;;;;;;;17.98;4.45;;;;;;;-0.07;100.00;96144.91;5093829;28;24820;-73
2022/02/01 04:42:20;;;;;;;16.08;4.15;;;;;;;-0.11;100.00;96150.88;5096569;28;25110;-72
2022/02/01 04:44:47;;;;;;;18.33;3.97;;;;;;;-0.08;100.00;96145.75;5095934;28;24430;-72
2022/02/01 04:47:13;;;;;;;20.48;4.10;;;;;;;-0.09;100.00;96144.91;5093583;28;24438;-72
2022/02/01 04:49:41;;;;;;;17.63;3.88;;;;;;;-0.06;100.00;96141.47;5096115;28;25269;-72
2022/02/01 04:52:08;;;;;;;18.83;3.95;;;;;;;-0.11;100.00;96130.50;5095040;28;25042;-74
2022/02/01 04:54:34;;;;;;;16.00;4.65;;;;;;;-0.12;100.00;96137.31;5097476;28;24441;-72
2022/02/01 04:57:01;;;;;;;20.15;4.43;;;;;;;-0.10;100.00;96135.59;5093101;28;24430;-73
2022/02/01 04:59:27;;;;;;;13.73;3.85;;;;;;;-0.12;100.00;96128.84;5093344;28;24511;-73
2022/02/01 05:01:54;;;;;;;14.18;4.18;;;;;;;-0.14;100.00;96156.03;5097651;28;24457;-72
2022/02/01 05:04:20;;;;;;;15.70;4.17;;;;;;;-0.14;100.00;96158.59;5093530;28;24478;-72
2022/02/01 05:06:51;;;;;;;13.57;3.53;;;;;;;-0.13;100.00;96160.25;5093722;28;24434;-73
2022/02/01 05:09:17;;;;;;;16.00;4.10;;;;;;;-0.17;100.00;96167.09;5093220;28;24440;-72
2022/02/01 05:11:44;;;;;;;15.77;4.47;;;;;;;-0.17;100.00;96169.63;5092917;28;24521;-72
2022/02/01 05:14:13;;;;;;;21.83;4.40;;;;;;;-0.19;100.00;96160.34;5092833;28;24515;-72
2022/02/01 05:16:57;;;;;;;12.60;3.90;;;;;;;-0.16;100.00;96165.38;5092852;28;24526;-72
2022/02/01 05:19:35;;;;;;;16.88;3.88;;;;;;;-0.19;100.00;96175.59;5095978;28;24501;-72
2022/02/01 05:22:07;;;;;;;15.27;4.33;;;;;;;-0.22;100.00;96163.78;5094934;28;25034;-72
2022/02/01 05:24:37;;;;;;;19.85;3.83;;;;;;;-0.23;100.00;96167.16;5100689;28;25158;-73
2022/02/01 05:27:06;;;;;;;18.33;4.07;;;;;;;-0.25;100.00;96192.66;5098410;28;24434;-72
2022/02/01 05:29:33;;;;;;;21.58;4.30;;;;;;;-0.20;100.00;96194.28;5111126;28;24829;-72
2022/02/01 05:32:04;;;;;;;18.23;3.90;;;;;;;-0.23;100.00;96194.34;5103530;28;24438;-72
2022/02/01 05:34:30;;;;;;;13.30;4.00;;;;;;;-0.25;100.00;96219.81;5104133;28;24430;-72
2022/02/01 05:36:57;;;;;;;16.45;4.35;;;;;;;-0.26;100.00;96218.13;5092290;28;24479;-72
2022/02/01 05:39:27;;;;;;;15.48;3.97;;;;;;;-0.27;100.00;96203.72;5093077;28;24441;-73
2022/02/01 05:41:56;;;;;;;20.08;4.55;;;;;;;-0.28;100.00;96213.06;5092621;28;25010;-72
2022/02/01 05:44:22;;;;;;;13.57;4.03;;;;;;;-0.28;100.00;96207.97;5107514;28;24452;-71
2022/02/01 05:46:49;;;;;;;19.02;3.97;;;;;;;-0.31;100.00;96217.34;5092239;28;24430;-72
2022/02/01 05:49:17;;;;;;;11.95;4.20;;;;;;;-0.27;100.00;96224.06;5092321;28;24430;-72
2022/02/01 05:51:44;;;;;;;20.52;4.18;;;;;;;-0.31;100.00;96218.19;5092117;28;24426;-72
2022/02/01 05:54:10;;;;;;;13.40;3.92;;;;;;;-0.31;100.00;96207.16;5092237;28;25033;-73
2022/02/01 05:56:38;;;;;;;14.98;3.88;;;;;;;-0.38;100.00;96205.56;5092764;28;24430;-73
2022/02/01 05:59:04;;;;;;;20.40;4.50;;;;;;;-0.38;100.00;96196.22;5092529;28;24441;-71
2022/02/01 06:01:31;;;;;;;21.23;4.25;;;;;;;-0.39;100.00;96197.09;5100702;28;24436;-72
2022/02/01 06:03:57;;;;;;;17.50;4.00;;;;;;;-0.39;100.00;96194.53;5093738;28;24997;-72
2022/02/01 06:06:24;;;;;;;16.45;4.05;;;;;;;-0.37;100.00;96200.47;5092855;28;24517;-72
2022/02/01 06:08:50;;;;;;;14.45;3.47;;;;;;;-0.37;100.00;96192.84;5093364;28;24430;-72
2022/02/01 06:11:17;;;;;;;14.47;3.47;;;;;;;-0.35;100.00;96201.28;5091834;28;24442;-73
2022/02/01 06:13:45;;;;;;;19.15;4.10;;;;;;;-0.42;100.00;96199.66;5094552;28;24428;-72
2022/02/01 06:16:11;;;;;;;15.48;3.80;;;;;;;-0.41;100.00;96205.59;5107493;28;24445;-73
2022/02/01 06:18:37;;;;;;;11.80;3.63;;;;;;;-0.36;100.00;96201.31;5094530;28;24433;-72
2022/02/01 06:21:04;;;;;;;11.85;3.70;;;;;;;-0.36;100.00;96212.31;5086281;28;24982;-72
2022/02/01 06:23:30;;;;;;;17.52;6.70;;;;;;;-0.38;100.00;96236.09;5093506;28;24491;-72
2022/02/01 06:25:57;;;;;;;35.00;14.75;;;;;;;-0.42;100.00;96239.53;5109269;28;25047;-73
2022/02/01 06:28:25;;;;;;;28.48;11.27;;;;;;;-0.33;100.00;96214.00;5090903;28;24446;-73
2022/02/01 06:30:55;;;;;;;19.33;4.47;;;;;;;-0.36;100.00;96219.13;5092924;28;24434;-72
2022/02/01 06:33:22;;;;;;;16.40;4.20;;;;;;;-0.32;100.00;96223.31;5097462;28;24906;-72
2022/02/01 06:35:49;;;;;;;15.80;3.47;;;;;;;-0.34;100.00;96220.75;5095689;28;24433;-72
2022/02/01 06:38:16;;;;;;;17.45;4.22;;;;;;;-0.38;100.00;96208.94;5097686;28;25055;-72
2022/02/01 06:40:44;;;;;;;16.98;4.05;;;;;;;-0.39;100.00;96214.06;5110301;28;24413;-72
2022/02/01 06:43:11;;;;;;;11.98;4.13;;;;;;;-0.44;100.00;96220.94;5093591;28;25030;-71
2022/02/01 06:45:38;;;;;;;18.85;3.85;;;;;;;-0.42;100.00;96230.19;5100166;28;24945;-71
2022/02/01 06:48:06;;;;;;;11.63;3.40;;;;;;;-0.44;100.00;96242.13;5101169;28;24792;-71
2022/02/01 06:50:34;;;;;;;13.02;3.92;;;;;;;-0.48;100.00;96253.19;5092114;28;25048;-72
2022/02/01 06:53:02;;;;;;;12.85;4.05;;;;;;;-0.44;100.00;96267.56;5091184;28;24434;-73
2022/02/01 06:55:36;;;;;;;16.35;3.88;;;;;;;-0.45;100.00;96260.78;5092443;28;24453;-73
2022/02/01 06:58:04;;;;;;;14.02;3.58;;;;;;;-0.48;100.00;96258.28;5111269;28;24532;-73
2022/02/01 07:00:30;;;;;;;12.98;3.28;;;;;;;-0.50;100.00;96257.44;5107462;28;24433;-73
2022/02/01 07:02:57;;;;;;;15.55;4.30;;;;;;;-0.53;100.00;96268.50;5095323;28;25025;-72
2022/02/01 07:05:25;;;;;;;8.15;3.03;;;;;;;-0.54;100.00;96274.44;5106789;28;24441;-74
2022/02/01 07:07:51;;;;;;;12.85;3.75;;;;;;;-0.53;100.00;96280.38;5111123;28;24945;-74
2022/02/01 07:10:19;;;;;;;13.10;3.85;;;;;;;-0.51;100.00;96292.22;5106639;28;24430;-72
2022/02/01 07:12:45;;;;;;;9.63;3.40;;;;;;;-0.54;100.00;96291.44;5111343;28;24421;-72
2022/02/01 07:15:12;;;;;;;10.55;3.60;;;;;;;-0.51;100.00;96301.56;5105896;28;24533;-73
2022/02/01 07:17:48;;;;;;;18.95;3.83;;;;;;;-0.54;100.00;96307.53;5108556;28;24430;-73
2022/02/01 07:20:15;;;;;;;15.10;4.00;;;;;;;-0.49;100.00;96315.09;5109836;28;24428;-72
2022/02/01 07:22:46;;;;;;;12.93;3.30;;;;;;;-0.47;100.00;96312.56;5094935;28;24456;-72
2022/02/01 07:25:16;;;;;;;13.40;3.50;;;;;;;-0.48;100.00;96299.00;5092805;28;24443;-74
2022/02/01 07:27:47;;;;;;;13.32;3.38;;;;;;;-0.46;100.00;96304.06;5090429;28;24438;-74
2022/02/01 07:30:16;;;;;;;10.68;3.53;;;;;;;-0.44;100.00;96298.09;5090016;28;24428;-73
2022/02/01 07:32:43;;;;;;;21.52;3.95;;;;;;;-0.43;100.00;96294.69;5091316;28;24855;-73
2022/02/01 07:35:10;;;;;;;11.15;3.58;;;;;;;-0.42;100.00;96291.28;5091243;28;24432;-73
2022/02/01 07:37:37;;;;;;;17.55;4.03;;;;;;;-0.39;100.00;96293.78;5091691;28;24471;-73
2022/02/01 07:40:07;;;;;;;15.03;3.90;;;;;;;-0.46;100.00;96291.34;5094327;28;24429;-73
2022/02/01 07:42:34;;;;;;;17.85;3.35;;;;;;;-0.44;100.00;96287.94;5093063;28;24855;-74
2022/02/01 07:45:02;;;;;;;10.93;3.30;;;;;;;-0.42;100.00;96295.53;5086132;28;24434;-78
2022/02/01 07:47:29;;;;;;;12.88;3.60;;;;;;;-0.34;100.00;96298.81;5087218;28;24492;-78
2022/02/01 07:49:56;;;;;;;12.63;3.67;;;;;;;-0.35;100.00;96284.41;5098111;28;24445;-76
2022/02/01 07:52:24;;;;;;;10.48;2.92;;;;;;;-0.32;100.00;96289.47;5092324;28;24438;-77
2022/02/01 07:54:50;;;;;;;11.57;3.70;;;;;;;-0.31;100.00;96268.25;5095958;28;24459;-77
2022/02/01 07:57:18;;;;;;;9.80;3.35;;;;;;;-0.32;100.00;96267.41;5096172;28;24433;-77
2022/02/01 07:59:44;;;;;;;11.48;3.47;;;;;;;-0.38;100.00;96267.47;5094901;28;24456;-79
2022/02/01 08:02:18;;;;;;;11.30;3.70;;;;;;;-0.38;100.00;96262.38;5108989;28;24413;-78
2022/02/01 08:04:45;;;;;;;11.85;3.65;;;;;;;-0.35;100.00;96251.34;5115058;28;24410;-78
2022/02/01 08:07:11;;;;;;;24.00;3.67;;;;;;;-0.33;100.00;96258.09;5115343;28;24421;-77
2022/02/01 08:09:41;;;;;;;8.18;2.38;;;;;;;-0.34;100.00;96261.47;5114519;28;24441;-78
2022/02/01 08:12:24;;;;;;;14.90;3.72;;;;;;;-0.35;100.00;96277.63;5122887;28;24437;-75
2022/02/01 08:15:50;;;;;;;9.20;3.03;;;;;;;-0.30;100.00;96272.47;5121506;28;24967;-75
2022/02/01 08:18:08;;;;;;;13.57;3.08;;;;;;;-0.29;100.00;96271.63;5106842;28;24425;-76
2022/02/01 08:20:44;;;;;;;12.73;3.50;;;;;;;-0.22;100.00;96262.19;5100156;28;24939;-77
2022/02/01 08:23:10;;;;;;;14.00;3.27;;;;;;;-0.20;100.00;96260.47;5101185;28;24910;-76
2022/02/01 08:25:37;;;;;;;16.20;3.35;;;;;;;-0.15;100.00;96277.41;5115160;28;24779;-77
2022/02/01 08:28:04;;;;;;;14.05;2.97;;;;;;;-0.13;100.00;96283.28;5099767;28;24436;-77
2022/02/01 08:30:33;;;;;;;10.48;2.83;;;;;;;-0.12;100.00;96284.97;5094016;28;24521;-74
2022/02/01 08:32:59;;;;;;;11.10;3.13;;;;;;;-0.09;100.00;96289.19;5114065;28;24966;-79
2022/02/01 08:35:26;;;;;;;12.20;3.22;;;;;;;-0.10;100.00;96287.50;5114536;28;24424;-77
2022/02/01 08:37:53;;;;;;;9.25;2.60;;;;;;;-0.08;100.00;96293.41;5106150;28;24974;-76
2022/02/01 08:40:20;;;;;;;11.77;3.17;;;;;;;-0.04;100.00;96288.28;5091497;28;24728;-76
2022/02/01 08:42:48;;;;;;;11.20;3.30;;;;;;;-0.01;100.00;96292.47;5092355;28;24454;-75
2022/02/01 08:45:22;;;;;;;9.85;2.83;;;;;;;0.01;100.00;96293.31;5093038;28;24434;-76
2022/02/01 08:47:50;;;;;;;6.65;2.28;;;;;;;0.12;100.00;96288.06;5095738;28;24473;-76
2022/02/01 08:50:19;;;;;;;8.13;2.47;;;;;;;0.10;100.00;96302.53;5093642;28;24422;-77
2022/02/01 08:52:48;;;;;;;17.95;3.35;;;;;;;0.17;100.00;96299.88;5093567;28;24455;-76
2022/02/01 08:57:55;;;;;;;16.13;3.13;;;;;;;0.16;100.00;96300.75;5112756;28;24791;-76
2022/02/01 09:00:22;;;;;;;10.63;2.97;;;;;;;0.07;100.00;96310.19;5114296;28;24425;-77
2022/02/01 09:02:50;;;;;;;8.80;2.55;;;;;;;0.02;100.00;96315.34;5113997;28;25062;-77
2022/02/01 09:05:16;;;;;;;15.38;2.78;;;;;;;0.01;100.00;96311.13;5113871;28;24429;-79
2022/02/01 09:07:44;;;;;;;13.43;3.00;;;;;;;0.03;100.00;96301.75;5110973;28;24433;-78
2022/02/01 09:10:11;;;;;;;9.55;2.80;;;;;;;0.05;100.00;96301.75;5093678;28;24421;-76
2022/02/01 09:12:37;;;;;;;8.75;2.80;;;;;;;0.08;100.00;96305.09;5093501;28;24438;-76
2022/02/01 09:15:05;;;;;;;10.35;2.78;;;;;;;0.04;100.00;96302.59;5098547;28;24433;-78
2022/02/01 09:17:31;;;;;;;14.35;3.00;;;;;;;0.07;100.00;96305.94;5114235;28;24782;-76
2022/02/01 09:20:00;;;;;;;11.05;2.65;;;;;;;0.12;100.00;96295.72;5114348;28;24416;-78
2022/02/01 09:22:27;;;;;;;11.70;2.70;;;;;;;0.13;100.00;96295.69;5113767;28;24967;-76
2022/02/01 09:24:54;;;;;;;18.53;3.87;;;;;;;0.16;100.00;96303.28;5098444;28;24493;-76
2022/02/01 09:27:20;;;;;;;15.05;4.43;;;;;;;0.29;100.00;96291.22;5093915;28;24430;-77
2022/02/01 09:29:47;;;;;;;13.88;3.00;;;;;;;0.35;100.00;96280.09;5092919;28;24414;-78
2022/02/01 09:32:14;;;;;;;10.70;2.97;;;;;;;0.34;100.00;96283.53;5108162;28;24501;-77
2022/02/01 09:34:40;;;;;;;9.32;2.63;;;;;;;0.42;100.00;96285.09;5112943;28;24425;-76
2022/02/01 09:37:08;;;;;;;11.77;3.17;;;;;;;0.51;100.00;96289.19;5113379;28;24475;-76
2022/02/01 09:39:35;;;;;;;11.88;3.97;;;;;;;0.41;100.00;96285.13;5112588;28;24437;-76
2022/02/01 09:42:01;;;;;;;20.20;3.28;;;;;;;0.52;100.00;96279.84;5112460;28;24990;-76
2022/02/01 09:44:29;;;;;;;7.53;2.53;;;;;;;0.57;100.00;96285.72;5118243;28;24445;-76
2022/02/01 09:47:01;;;;;;;7.53;2.67;;;;;;;0.60;100.00;96273.78;5127345;28;24429;-76
2022/02/01 09:49:28;;;;;;;8.82;2.28;;;;;;;0.65;100.00;96273.69;5118074;28;24426;-75
2022/02/01 09:51:57;;;;;;;9.25;3.28;;;;;;;1.00;100.00;96275.63;5112135;28;24962;-74
2022/02/01 09:54:27;;;;;;;14.00;3.00;;;;;;;1.14;100.00;96272.84;5118714;28;24426;-74
2022/02/01 09:56:55;;;;;;;10.53;2.60;;;;;;;1.16;100.00;96277.06;5102876;28;24514;-74
2022/02/01 09:59:30;;;;;;;10.75;2.83;;;;;;;1.24;100.00;96278.66;5105782;28;24521;-74
2022/02/01 10:01:57;;;;;;;12.70;2.60;;;;;;;1.33;100.00;96275.91;5099891;28;24430;-74
2022/02/01 10:04:28;;;;;;;9.88;2.92;;;;;;;1.28;100.00;96270.06;5117506;28;24469;-74
2022/02/01 10:07:06;;;;;;;6.97;2.72;;;;;;;1.06;100.00;96280.66;5109588;28;24505;-74
2022/02/01 10:09:49;;;;;;;9.57;3.00;;;;;;;1.23;100.00;96279.53;5110471;28;24469;-74
2022/02/01 10:12:44;;;;;;;12.18;2.83;;;;;;;1.21;100.00;96280.38;5123312;28;24459;-75
2022/02/01 10:15:21;;;;;;;11.25;2.65;;;;;;;1.34;100.00;96285.28;5106444;28;24519;-76
2022/02/01 10:17:50;;;;;;;12.05;2.58;;;;;;;1.27;100.00;96276.88;5099536;28;24433;-77
2022/02/01 10:20:17;;;;;;;8.52;2.35;;;;;;;1.21;100.00;96270.16;5112539;28;24925;-77
2022/02/01 10:22:45;;;;;;;8.43;2.38;;;;;;;1.19;100.00;96271.91;5112113;28;24425;-76
2022/02/01 10:25:24;;;;;;;9.02;2.20;;;;;;;1.32;100.00;96271.69;5111823;28;24454;-77
2022/02/01 10:27:57;;;;;;;7.38;2.13;;;;;;;1.28;100.00;96272.63;5112085;28;24474;-76
2022/02/01 10:30:28;;;;;;;7.55;2.13;;;;;;;1.39;100.00;96269.00;5104006;28;25011;-76
2022/02/01 10:33:14;;;;;;;6.13;2.13;;;;;;;1.34;100.00;96267.41;5091759;28;25144;-76
2022/02/01 10:35:55;;;;;;;17.55;3.15;;;;;;;1.43;100.00;96249.34;5097723;28;25147;-76
2022/02/01 10:38:23;;;;;;;16.40;2.67;;;;;;;1.39;100.00;96261.34;5091252;28;24441;-77
2022/02/01 10:40:52;;;;;;;9.65;2.92;;;;;;;1.42;100.00;96243.41;5091539;28;24437;-78
2022/02/01 10:43:20;;;;;;;8.15;2.35;;;;;;;1.39;100.00;96257.94;5091310;28;24446;-76
2022/02/01 10:45:48;;;;;;;10.60;2.17;;;;;;;1.40;100.00;96262.16;5091346;28;24442;-75
2022/02/01 10:48:16;;;;;;;8.93;2.22;;;;;;;1.45;100.00;96268.06;5097292;28;24541;-75
2022/02/01 10:50:45;;;;;;;8.73;2.40;;;;;;;1.24;100.00;96266.72;5111703;28;24413;-75
2022/02/01 10:53:19;;;;;;;12.00;2.50;;;;;;;1.22;100.00;96250.59;5111592;28;24437;-76
2022/02/01 10:55:46;;;;;;;8.43;2.58;;;;;;;1.14;100.00;96243.09;5093069;28;24437;-76
2022/02/01 10:58:15;;;;;;;8.47;2.43;;;;;;;1.19;100.00;96241.31;5090804;28;24469;-76
2022/02/01 11:00:42;;;;;;;7.10;2.10;;;;;;;1.12;100.00;96244.00;5093123;28;24437;-76
2022/02/01 11:03:09;;;;;;;11.15;2.55;;;;;;;1.01;100.00;96245.91;5096564;28;24458;-76
2022/02/01 11:05:36;;;;;;;6.38;2.40;;;;;;;1.02;100.00;96243.31;5112457;28;24426;-76
2022/02/01 11:08:04;;;;;;;8.27;2.55;;;;;;;0.98;100.00;96238.31;5111629;28;24425;-76
2022/02/01 11:10:31;;;;;;;8.27;2.20;;;;;;;1.00;100.00;96222.06;5086315;28;24520;-76
2022/02/01 11:13:05;;;;;;;9.27;2.35;;;;;;;0.99;100.00;96210.22;5090680;28;24433;-76
2022/02/01 11:15:32;;;;;;;7.75;2.60;;;;;;;0.94;100.00;96199.25;5090550;28;24462;-76
2022/02/01 11:18:09;;;;;;;7.53;2.13;;;;;;;0.88;100.00;96189.16;5108160;28;24441;-75
2022/02/01 11:23:21;;;;;;;8.15;2.40;;;;;;;0.93;100.00;96151.69;5107050;28;24449;-75
2022/02/01 11:25:53;;;;;;;9.35;2.20;;;;;;;1.02;100.00;96153.22;5097047;28;24426;-76
2022/02/01 11:28:36;;;;;;;8.43;2.13;;;;;;;1.11;100.00;96150.47;5097609;28;24429;-77
2022/02/01 11:31:04;;;;;;;15.55;2.55;;;;;;;1.07;100.00;96142.03;5096762;28;24526;-76
2022/02/01 11:33:37;;;;;;;8.18;2.17;;;;;;;1.00;100.00;96132.81;5096925;28;24425;-78
2022/02/01 11:36:05;;;;;;;8.75;2.50;;;;;;;1.06;100.00;96125.06;5095619;28;24461;-79
2022/02/01 11:38:32;;;;;;;15.38;2.25;;;;;;;1.06;100.00;96125.06;5102834;28;24510;-77
2022/02/01 11:41:01;;;;;;;21.83;2.53;;;;;;;1.07;100.00;96121.63;5115369;28;24425;-77
2022/02/01 11:43:27;;;;;;;13.00;2.10;;;;;;;0.96;100.00;96111.66;5115758;28;24424;-77
2022/02/01 11:45:56;;;;;;;9.63;2.08;;;;;;;0.95;100.00;96104.84;5103135;28;24437;-76
2022/02/01 11:48:26;;;;;;;9.77;2.08;;;;;;;1.10;100.00;96087.56;5093850;28;24504;-77
2022/02/01 11:50:54;;;;;;;5.93;1.75;;;;;;;1.00;100.00;96084.34;5094252;28;24480;-77
2022/02/01 11:53:24;;;;;;;5.28;1.70;;;;;;;0.96;100.00;96086.16;5087197;28;24440;-77
2022/02/01 11:55:53;;;;;;;3.53;1.30;;;;;;;1.06;100.00;96073.19;5074394;28;24418;-76
2022/02/01 11:58:31;;;;;;;4.55;1.40;;;;;;;0.99;100.00;96064.84;5072026;28;24426;-77
2022/02/01 12:00:59;;;;;;;5.45;1.65;;;;;;;1.00;100.00;96055.47;5093932;28;24437;-76
2022/02/01 12:03:37;;;;;;;4.17;1.47;;;;;;;1.15;100.00;96040.69;5110695;28;24423;-77
2022/02/01 12:06:08;;;;;;;6.10;1.58;;;;;;;1.12;100.00;96035.66;5110818;28;24819;-77
2022/02/01 12:08:38;;;;;;;5.93;1.40;;;;;;;1.24;100.00;96038.81;5110683;28;24958;-77
2022/02/01 12:11:08;;;;;;;7.13;1.45;;;;;;;1.41;100.00;96029.06;5111071;28;24437;-78
2022/02/01 12:13:36;;;;;;;5.07;1.38;;;;;;;1.37;100.00;96019.78;5119941;28;24421;-77
2022/02/01 12:16:05;;;;;;;3.63;1.48;;;;;;;1.43;100.00;96017.09;5093782;28;24431;-77
2022/02/01 12:18:43;;;;;;;3.78;1.20;;;;;;;1.54;100.00;96014.31;5094627;28;24437;-79
2022/02/01 12:21:36;;;;;;;3.53;1.20;;;;;;;1.61;100.00;96008.19;5097979;28;24479;-78
2022/02/01 12:24:04;;;;;;;4.05;1.50;;;;;;;1.54;100.00;95997.28;5078437;28;24458;-78
2022/02/01 12:26:33;;;;;;;3.83;1.23;;;;;;;1.58;100.00;96003.16;5111277;28;24436;-78
2022/02/01 12:29:03;;;;;;;3.80;0.95;;;;;;;1.34;100.00;95994.38;5114538;28;24470;-76
2022/02/01 12:31:31;;;;;;;1.27;0.80;;;;;;;1.56;100.00;96000.66;5114080;28;24509;-78
2022/02/01 12:34:01;;;;;;;2.58;1.15;;;;;;;1.51;100.00;95994.78;5114355;28;24471;-77